Terminal Aerodrome Forecast
Issued by NWS Wilmington, OH

Home | Current Version | Previous Version | Text Only | Print | Product List | Glossary On
Versions: 1 2 3 4 5 6 7 8 9 10 11 12 13 14 15 16 17 18 19 20 21 22 23 24 25 26 27 28 29 30 31 32 33 34 35 36
815
FTUS41 KILN 131650 AAB
TAFILN
TAF AMD
KILN 131650Z 1317/1412 17006KT P6SM SCT008 OVC040
     FM131800 10003KT P6SM BKN008 OVC080
     FM140400 36005KT 2SM -RA BR OVC005=

USA.gov is the U.S. government's official web portal to all federal, state and local government web resources and services.